Time;durP1;ratioP1;P1;durP2;ratioP2;P2;SDS_P1;SDS_P2;PMS_P1;PMS_P2;Temp;Humidity;BMP_temperature;BMP_pressure;BME280_temperature;BME280_humidity;BME280_pressure;Samples;Min_cycle;Max_cycle;Signal;HPM_P1;HPM_P2
2021/09/07 00:01:13;;;;;;;9.73;4.60;;;11.80;99.90;;;;;;4257614;27;20087;-62
2021/09/07 00:03:15;;;;;;;8.73;4.60;;;11.80;99.90;;;;;;4256654;27;20087;-62
2021/09/07 00:05:16;;;;;;;6.20;4.23;;;11.70;99.90;;;;;;4258032;27;20039;-63
2021/09/07 00:07:17;;;;;;;7.73;4.30;;;11.70;99.90;;;;;;4257515;27;20793;-63
2021/09/07 00:09:18;;;;;;;9.27;4.60;;;11.70;99.90;;;;;;4257784;27;20034;-63
2021/09/07 00:11:19;;;;;;;6.17;4.00;;;11.70;99.90;;;;;;4245357;27;20103;-62
2021/09/07 00:13:20;;;;;;;6.87;4.10;;;11.60;99.90;;;;;;4241644;27;20088;-63
2021/09/07 00:15:22;;;;;;;7.17;3.93;;;11.60;99.90;;;;;;4239825;27;20421;-62
2021/09/07 00:17:23;;;;;;;9.40;4.30;;;11.60;99.90;;;;;;4242087;27;20170;-63
2021/09/07 00:19:24;;;;;;;6.80;4.07;;;11.60;99.90;;;;;;4240766;27;20043;-63
2021/09/07 00:21:25;;;;;;;8.70;4.40;;;11.60;99.90;;;;;;4240090;27;20096;-63
2021/09/07 00:23:26;;;;;;;9.90;4.63;;;11.60;99.90;;;;;;4240432;27;20437;-63
2021/09/07 00:25:27;;;;;;;6.83;4.27;;;11.60;99.90;;;;;;4240734;27;20080;-63
2021/09/07 00:27:28;;;;;;;6.70;4.33;;;11.50;99.90;;;;;;4241119;27;20039;-63
2021/09/07 00:29:30;;;;;;;7.50;3.90;;;11.50;99.90;;;;;;4239430;27;20032;-63
2021/09/07 00:31:31;;;;;;;13.27;5.00;;;11.50;99.90;;;;;;4240774;27;20023;-62
2021/09/07 00:33:32;;;;;;;6.80;4.33;;;11.50;99.90;;;;;;4239769;28;20019;-62
2021/09/07 00:35:34;;;;;;;8.63;4.73;;;11.50;99.90;;;;;;4240884;28;20035;-62
2021/09/07 00:37:36;;;;;;;8.30;4.80;;;11.40;99.90;;;;;;4239581;28;20091;-63
2021/09/07 00:39:37;;;;;;;7.80;3.93;;;11.40;99.90;;;;;;4241402;28;20035;-62
2021/09/07 00:41:42;;;;;;;7.83;4.70;;;11.30;99.90;;;;;;4239749;28;20031;-62
2021/09/07 00:43:43;;;;;;;8.13;4.23;;;11.30;99.90;;;;;;4240850;28;20062;-62
2021/09/07 00:45:45;;;;;;;9.00;4.23;;;11.20;99.90;;;;;;4238851;28;20603;-62
2021/09/07 00:47:46;;;;;;;7.57;4.57;;;11.20;99.90;;;;;;4241098;27;20032;-63
2021/09/07 00:49:47;;;;;;;9.70;4.30;;;11.20;99.90;;;;;;4240565;27;20035;-63
2021/09/07 00:51:50;;;;;;;9.07;4.43;;;11.10;99.90;;;;;;4240490;28;20084;-63
2021/09/07 00:53:51;;;;;;;10.63;4.73;;;11.10;99.90;;;;;;4239586;27;20023;-63
2021/09/07 00:55:57;;;;;;;9.23;4.83;;;11.20;99.90;;;;;;4243542;27;20035;-62
2021/09/07 00:58:01;;;;;;;8.07;4.70;;;11.10;99.90;;;;;;4244225;27;20080;-63
2021/09/07 01:00:07;;;;;;;7.37;4.70;;;11.10;99.90;;;;;;4243248;27;20031;-63
2021/09/07 01:02:08;;;;;;;8.70;4.77;;;11.00;99.90;;;;;;4244030;27;20566;-63
2021/09/07 01:04:09;;;;;;;9.00;4.57;;;11.00;99.90;;;;;;4242435;27;20093;-63
2021/09/07 01:06:10;;;;;;;9.50;4.73;;;11.00;99.90;;;;;;4248481;27;20034;-64
2021/09/07 01:08:12;;;;;;;10.80;4.70;;;10.90;99.90;;;;;;4260061;27;20038;-63
2021/09/07 01:10:13;;;;;;;8.43;5.00;;;10.90;99.90;;;;;;4261465;27;20071;-63
2021/09/07 01:12:14;;;;;;;7.97;4.53;;;10.80;99.90;;;;;;4259402;27;20099;-63
2021/09/07 01:14:18;;;;;;;10.23;4.87;;;10.70;99.90;;;;;;4261052;27;20083;-62
2021/09/07 01:16:19;;;;;;;12.67;4.53;;;10.60;99.90;;;;;;4259784;27;20492;-62
2021/09/07 01:18:20;;;;;;;7.73;4.23;;;10.60;99.90;;;;;;4261272;27;20022;-62
2021/09/07 01:20:21;;;;;;;9.77;4.87;;;10.50;99.90;;;;;;4257583;27;20079;-64
2021/09/07 01:22:23;;;;;;;7.63;4.87;;;10.50;99.90;;;;;;4241863;27;20043;-62
2021/09/07 01:24:26;;;;;;;7.47;4.80;;;10.40;99.90;;;;;;4259635;27;20039;-62
2021/09/07 01:26:27;;;;;;;7.13;4.63;;;10.40;99.90;;;;;;4260422;27;20091;-62
2021/09/07 01:28:29;;;;;;;7.80;4.47;;;10.40;99.90;;;;;;4260310;27;20022;-63
2021/09/07 01:30:30;;;;;;;8.37;3.93;;;10.40;99.90;;;;;;4260059;27;20084;-63
2021/09/07 01:32:32;;;;;;;6.30;4.43;;;10.40;99.90;;;;;;4260144;27;20463;-62
2021/09/07 01:34:33;;;;;;;8.77;4.17;;;10.40;99.90;;;;;;4241374;27;20135;-62
2021/09/07 01:36:34;;;;;;;7.73;4.63;;;10.30;99.90;;;;;;4259988;27;20087;-62
2021/09/07 01:38:35;;;;;;;7.03;4.47;;;10.30;99.90;;;;;;4259002;27;20091;-62
2021/09/07 01:40:36;;;;;;;8.27;4.50;;;10.30;99.90;;;;;;4260730;27;20083;-62
2021/09/07 01:42:37;;;;;;;7.83;4.17;;;10.30;99.90;;;;;;4259231;27;20128;-61
2021/09/07 01:44:41;;;;;;;9.13;4.17;;;10.40;99.90;;;;;;4260954;27;20031;-62
2021/09/07 01:46:42;;;;;;;5.70;4.00;;;10.30;99.90;;;;;;4238806;27;20093;-63
2021/09/07 01:48:44;;;;;;;8.00;4.47;;;10.40;99.90;;;;;;4243723;27;20023;-62
2021/09/07 01:50:46;;;;;;;7.77;4.57;;;10.40;99.90;;;;;;4242059;27;20027;-62
2021/09/07 01:52:47;;;;;;;14.20;5.30;;;10.40;99.90;;;;;;4243729;27;20080;-61
2021/09/07 01:54:48;;;;;;;9.37;4.70;;;10.40;99.90;;;;;;4242491;27;20039;-62
2021/09/07 01:56:49;;;;;;;8.47;4.43;;;10.40;99.90;;;;;;4242935;27;20790;-62
2021/09/07 01:58:51;;;;;;;8.30;4.77;;;10.40;99.90;;;;;;4242963;27;20027;-62
2021/09/07 02:00:52;;;;;;;11.63;4.50;;;10.40;99.90;;;;;;4243455;27;20031;-62
2021/09/07 02:02:53;;;;;;;6.90;4.23;;;10.20;99.90;;;;;;4242706;27;20023;-62
2021/09/07 02:04:54;;;;;;;9.07;4.23;;;10.20;99.90;;;;;;4241528;27;20087;-62
2021/09/07 02:06:55;;;;;;;7.57;4.40;;;10.10;99.90;;;;;;4242684;27;20091;-64
2021/09/07 02:08:57;;;;;;;12.43;3.57;;;10.10;99.90;;;;;;4241594;27;20536;-63
2021/09/07 02:10:58;;;;;;;9.03;4.70;;;10.10;99.90;;;;;;4243446;27;20095;-62
2021/09/07 02:12:59;;;;;;;7.40;4.40;;;10.10;99.90;;;;;;4241497;27;20528;-62
2021/09/07 02:15:00;;;;;;;6.50;4.23;;;10.10;99.90;;;;;;4242524;27;20111;-62
2021/09/07 02:17:01;;;;;;;9.37;4.67;;;10.10;99.90;;;;;;4241828;27;20023;-63
2021/09/07 02:19:02;;;;;;;9.83;5.03;;;10.00;99.90;;;;;;4242484;27;20069;-63
2021/09/07 02:21:04;;;;;;;9.87;3.80;;;10.00;99.90;;;;;;4241348;27;20035;-62
2021/09/07 02:23:06;;;;;;;8.13;4.50;;;10.00;99.90;;;;;;4243095;27;20424;-63
2021/09/07 02:25:08;;;;;;;7.63;5.00;;;10.00;99.90;;;;;;4241333;27;20084;-63
2021/09/07 02:27:09;;;;;;;8.07;5.00;;;10.00;99.90;;;;;;4242304;27;20038;-63
2021/09/07 02:29:11;;;;;;;8.07;4.67;;;10.00;99.90;;;;;;4241449;27;20023;-62
2021/09/07 02:31:12;;;;;;;8.07;4.93;;;10.00;99.90;;;;;;4257680;27;20522;-62
2021/09/07 02:33:13;;;;;;;11.87;4.73;;;9.90;99.90;;;;;;4259325;27;20027;-63
2021/09/07 02:35:14;;;;;;;13.80;5.37;;;9.90;99.90;;;;;;4240415;27;20113;-63
2021/09/07 02:37:15;;;;;;;9.10;4.90;;;9.90;99.90;;;;;;4259691;27;20771;-62
2021/09/07 02:39:17;;;;;;;10.33;4.80;;;9.90;99.90;;;;;;4258806;27;20023;-63
2021/09/07 02:41:18;;;;;;;11.03;4.60;;;9.80;99.90;;;;;;4258973;27;20455;-62
2021/09/07 02:43:19;;;;;;;7.97;4.43;;;9.90;99.90;;;;;;4258405;27;20921;-62
2021/09/07 02:45:20;;;;;;;8.23;4.37;;;9.80;99.90;;;;;;4240287;27;20092;-62
2021/09/07 02:47:21;;;;;;;7.47;4.43;;;9.80;99.90;;;;;;4246914;27;20087;-62
2021/09/07 02:49:22;;;;;;;7.70;4.30;;;9.70;99.90;;;;;;4242508;27;20151;-62
2021/09/07 02:51:23;;;;;;;7.70;4.30;;;9.70;99.90;;;;;;4240939;27;20039;-62
2021/09/07 02:53:26;;;;;;;8.90;4.87;;;9.70;99.90;;;;;;4242086;27;20035;-62
2021/09/07 02:55:27;;;;;;;7.93;4.43;;;9.60;99.90;;;;;;4240977;27;20152;-63
2021/09/07 02:57:28;;;;;;;7.07;4.43;;;9.60;99.90;;;;;;4242074;27;20076;-62
2021/09/07 02:59:29;;;;;;;7.77;4.50;;;9.60;99.90;;;;;;4241566;27;20019;-62
2021/09/07 03:01:30;;;;;;;8.50;4.40;;;9.50;99.90;;;;;;4241513;27;20821;-62
2021/09/07 03:03:33;;;;;;;12.63;4.60;;;9.50;99.90;;;;;;4241638;27;20051;-63
2021/09/07 03:05:34;;;;;;;10.23;4.77;;;9.50;99.90;;;;;;4241777;27;20027;-63
2021/09/07 03:07:35;;;;;;;11.83;4.80;;;9.40;99.90;;;;;;4241731;27;20432;-63
2021/09/07 03:09:36;;;;;;;7.53;4.67;;;9.40;99.90;;;;;;4240927;27;20031;-63
2021/09/07 03:11:38;;;;;;;10.53;5.60;;;9.30;99.90;;;;;;4241830;27;20099;-63
2021/09/07 03:13:39;;;;;;;9.50;4.30;;;9.30;99.90;;;;;;4240950;27;20569;-63
2021/09/07 03:15:41;;;;;;;12.30;5.40;;;9.30;99.90;;;;;;4239846;27;20092;-63
2021/09/07 03:17:42;;;;;;;25.63;12.53;;;9.30;99.90;;;;;;4239832;27;20023;-63
2021/09/07 03:19:43;;;;;;;14.77;6.90;;;9.30;99.90;;;;;;4242058;27;20104;-63
2021/09/07 03:21:44;;;;;;;13.57;6.37;;;9.10;99.90;;;;;;4239189;27;20147;-62
2021/09/07 03:23:46;;;;;;;13.03;6.53;;;9.10;99.90;;;;;;4241654;27;20043;-63
2021/09/07 03:25:47;;;;;;;13.03;5.50;;;8.90;99.90;;;;;;4241109;27;20069;-63
2021/09/07 03:27:48;;;;;;;12.57;6.13;;;8.90;99.90;;;;;;4240991;27;20039;-63
2021/09/07 03:29:50;;;;;;;14.80;6.53;;;8.80;99.90;;;;;;4240850;27;20023;-63
2021/09/07 03:31:51;;;;;;;17.50;6.60;;;8.80;99.90;;;;;;4241598;27;20376;-64
2021/09/07 03:33:53;;;;;;;17.20;7.47;;;8.80;99.90;;;;;;4241021;27;20476;-63
2021/09/07 03:35:54;;;;;;;13.13;7.40;;;8.90;99.90;;;;;;4245213;27;20039;-62
2021/09/07 03:37:55;;;;;;;15.27;7.27;;;8.90;99.90;;;;;;4257165;27;20157;-63
2021/09/07 03:39:56;;;;;;;13.20;6.33;;;8.80;99.90;;;;;;4257849;27;20035;-64
2021/09/07 03:41:57;;;;;;;11.93;6.50;;;8.90;99.90;;;;;;4258641;27;20091;-64
2021/09/07 03:43:58;;;;;;;19.50;6.23;;;8.90;99.90;;;;;;4256986;27;20035;-64
2021/09/07 03:46:00;;;;;;;10.63;5.37;;;8.90;99.90;;;;;;4257840;27;20034;-63
2021/09/07 03:48:01;;;;;;;16.23;6.00;;;8.90;99.90;;;;;;4257735;27;20023;-63
2021/09/07 03:50:02;;;;;;;10.83;5.73;;;9.00;99.90;;;;;;4258700;27;20404;-64
2021/09/07 03:52:04;;;;;;;12.63;4.87;;;9.00;99.90;;;;;;4257069;27;20079;-64
2021/09/07 03:54:05;;;;;;;21.33;7.87;;;9.00;99.90;;;;;;4258895;27;20030;-64
2021/09/07 03:56:06;;;;;;;22.67;7.83;;;9.00;99.90;;;;;;4257078;27;20042;-64
2021/09/07 03:58:07;;;;;;;15.40;7.20;;;9.00;99.90;;;;;;4257872;27;20039;-64
2021/09/07 04:00:08;;;;;;;20.73;7.53;;;8.90;99.90;;;;;;4254929;27;20087;-64
2021/09/07 04:02:10;;;;;;;16.77;7.73;;;8.90;99.90;;;;;;4257792;27;20475;-64
2021/09/07 04:04:11;;;;;;;18.07;6.33;;;9.00;99.90;;;;;;4256452;27;20487;-63
2021/09/07 04:06:12;;;;;;;16.43;6.47;;;9.00;99.90;;;;;;4257305;27;20443;-64
2021/09/07 04:08:13;;;;;;;20.43;7.00;;;8.90;99.90;;;;;;4242150;27;20027;-64
2021/09/07 04:10:15;;;;;;;15.30;7.20;;;8.90;99.90;;;;;;4239631;27;20111;-63
2021/09/07 04:12:16;;;;;;;18.83;7.47;;;9.00;99.90;;;;;;4239079;27;20027;-62
2021/09/07 04:14:17;;;;;;;34.77;7.87;;;9.10;99.90;;;;;;4256226;27;20084;-60
2021/09/07 04:16:18;;;;;;;17.37;7.60;;;9.30;99.90;;;;;;4257560;27;20072;-61
2021/09/07 04:18:20;;;;;;;13.33;6.67;;;9.60;99.90;;;;;;4256961;27;20035;-60
2021/09/07 04:20:21;;;;;;;17.77;7.40;;;9.80;99.90;;;;;;4257855;27;20034;-62
2021/09/07 04:22:22;;;;;;;12.87;6.80;;;10.10;99.90;;;;;;4256302;27;20847;-62
2021/09/07 04:24:24;;;;;;;12.47;5.83;;;10.40;99.90;;;;;;4257636;27;20023;-62
2021/09/07 04:26:25;;;;;;;12.97;6.27;;;10.80;99.90;;;;;;4255560;27;20035;-63
2021/09/07 04:28:26;;;;;;;16.20;5.90;;;11.10;99.90;;;;;;4256720;27;20098;-62
2021/09/07 04:30:27;;;;;;;14.20;6.00;;;11.20;99.90;;;;;;4255330;27;20553;-62
2021/09/07 04:32:28;;;;;;;14.23;6.30;;;11.40;99.90;;;;;;4257225;27;20102;-62
2021/09/07 04:34:29;;;;;;;16.30;5.50;;;11.60;99.90;;;;;;4256250;27;20034;-61
2021/09/07 04:36:30;;;;;;;16.83;5.70;;;11.80;99.90;;;;;;4256187;27;20813;-62
2021/09/07 04:38:31;;;;;;;17.80;5.90;;;11.90;99.90;;;;;;4256487;27;20094;-62
2021/09/07 04:40:32;;;;;;;14.40;5.60;;;12.10;99.90;;;;;;4256179;27;20031;-63
2021/09/07 04:42:34;;;;;;;15.73;5.80;;;12.40;99.90;;;;;;4256880;27;20087;-62
2021/09/07 04:44:35;;;;;;;15.47;5.70;;;12.50;99.90;;;;;;4254691;27;20042;-62
2021/09/07 04:46:36;;;;;;;22.60;6.30;;;12.60;99.90;;;;;;4256681;27;20095;-62
2021/09/07 04:48:38;;;;;;;19.43;6.47;;;12.80;99.90;;;;;;4254358;27;20554;-61
2021/09/07 04:50:39;;;;;;;17.03;6.17;;;13.00;99.90;;;;;;4239543;27;20047;-63
2021/09/07 04:52:40;;;;;;;15.47;6.00;;;13.30;99.90;;;;;;4238370;28;20076;-63
2021/09/07 04:54:41;;;;;;;14.53;5.80;;;13.90;99.90;;;;;;4254444;27;20091;-62
2021/09/07 04:56:50;;;;;;;23.73;7.17;;;14.50;99.90;;;;;;4232700;27;20444;-61
2021/09/07 04:58:52;;;;;;;15.88;6.82;;;15.20;99.90;;;;;;4250434;27;20087;-61
2021/09/07 05:00:53;;;;;;;20.30;5.40;;;15.90;99.90;;;;;;4252014;27;20043;-61
2021/09/07 05:02:54;;;;;;;13.30;5.70;;;16.30;99.90;;;;;;4239857;27;20100;-61
2021/09/07 05:04:55;;;;;;;14.80;5.05;;;16.90;99.90;;;;;;4245472;27;20027;-61
2021/09/07 05:06:56;;;;;;;16.95;5.57;;;17.10;99.90;;;;;;4255420;27;20031;-61
2021/09/07 05:08:57;;;;;;;14.45;4.93;;;17.50;99.90;;;;;;4238991;27;20035;-62
2021/09/07 05:10:59;;;;;;;18.45;6.10;;;17.70;99.90;;;;;;4238007;28;20102;-62
2021/09/07 05:13:00;;;;;;;15.63;5.30;;;17.90;99.90;;;;;;4238445;27;20043;-62
2021/09/07 05:15:01;;;;;;;19.13;6.03;;;18.20;99.90;;;;;;4249826;27;20929;-62
2021/09/07 05:17:02;;;;;;;23.83;5.05;;;18.30;99.90;;;;;;4246051;27;20091;-62
2021/09/07 05:19:03;;;;;;;17.05;5.90;;;18.40;99.90;;;;;;4237745;28;20084;-62
2021/09/07 05:21:04;;;;;;;23.73;6.05;;;18.60;99.90;;;;;;4240006;28;20441;-62
2021/09/07 05:23:06;;;;;;;18.45;5.38;;;18.90;99.90;;;;;;4239317;28;20084;-63
2021/09/07 05:25:07;;;;;;;18.92;5.85;;;18.90;99.90;;;;;;4243267;27;20035;-63
2021/09/07 05:27:08;;;;;;;18.33;5.85;;;18.70;99.90;;;;;;4239120;28;20027;-63
2021/09/07 05:29:09;;;;;;;26.58;5.70;;;18.50;99.90;;;;;;4240973;28;20092;-63
2021/09/07 05:31:11;;;;;;;23.80;5.63;;;18.70;99.90;;;;;;4238638;28;20088;-63
2021/09/07 05:33:12;;;;;;;20.60;6.65;;;19.10;99.60;;;;;;4240221;28;20543;-63
2021/09/07 05:35:13;;;;;;;24.10;5.90;;;18.90;99.10;;;;;;4238695;28;20023;-62
2021/09/07 05:37:14;;;;;;;19.15;6.63;;;18.90;99.00;;;;;;4239692;28;20053;-62
2021/09/07 05:39:15;;;;;;;24.80;6.07;;;19.10;98.90;;;;;;4237248;27;20039;-62
2021/09/07 05:41:16;;;;;;;19.42;5.15;;;19.20;98.50;;;;;;4241229;27;20440;-62
2021/09/07 05:43:18;;;;;;;31.17;6.88;;;19.30;98.30;;;;;;4242413;27;20051;-63
2021/09/07 05:45:19;;;;;;;35.80;6.80;;;19.30;97.90;;;;;;4241107;27;20476;-62
2021/09/07 05:47:20;;;;;;;19.75;5.95;;;19.60;97.60;;;;;;4242646;27;20352;-61
2021/09/07 05:49:21;;;;;;;21.45;5.63;;;19.90;97.00;;;;;;4241367;27;20461;-62
2021/09/07 05:51:22;;;;;;;20.70;5.95;;;20.00;96.70;;;;;;4242842;27;20019;-62
2021/09/07 05:53:23;;;;;;;13.88;5.55;;;19.90;96.30;;;;;;4241421;27;20091;-61
2021/09/07 05:55:24;;;;;;;33.50;6.85;;;19.70;96.20;;;;;;4242434;27;20031;-62
2021/09/07 05:57:26;;;;;;;27.23;6.55;;;19.60;96.10;;;;;;4241792;27;20030;-63
2021/09/07 05:59:27;;;;;;;22.35;6.70;;;19.50;95.90;;;;;;4242281;27;20039;-62
2021/09/07 06:01:28;;;;;;;25.90;7.18;;;19.30;96.10;;;;;;4239357;27;20096;-62
2021/09/07 06:03:29;;;;;;;28.02;6.80;;;18.70;96.40;;;;;;4242659;27;20092;-62
2021/09/07 06:05:30;;;;;;;26.20;6.68;;;18.70;96.50;;;;;;4241295;27;20060;-62
2021/09/07 06:07:31;;;;;;;43.55;7.55;;;18.90;96.40;;;;;;4242269;27;20089;-64
2021/09/07 06:09:33;;;;;;;31.90;9.20;;;19.10;95.90;;;;;;4242187;27;20027;-63
2021/09/07 06:11:34;;;;;;;30.38;10.10;;;18.80;95.80;;;;;;4241534;27;20110;-63
2021/09/07 06:13:35;;;;;;;17.70;8.82;;;18.80;96.00;;;;;;4242354;27;20024;-62
2021/09/07 06:15:39;;;;;;;33.38;11.80;;;19.30;96.00;;;;;;4240955;27;20076;-61
2021/09/07 06:17:40;;;;;;;28.63;11.40;;;19.70;95.10;;;;;;4242973;27;20060;-62
2021/09/07 06:19:41;;;;;;;30.63;10.63;;;19.60;95.20;;;;;;4241786;27;20027;-62
2021/09/07 06:21:42;;;;;;;27.58;12.82;;;19.90;94.80;;;;;;4242923;27;20027;-62
2021/09/07 06:23:43;;;;;;;32.30;12.13;;;19.80;94.60;;;;;;4240841;27;20031;-62
2021/09/07 06:25:44;;;;;;;29.50;12.40;;;19.90;94.60;;;;;;4242180;27;20503;-63
2021/09/07 06:27:45;;;;;;;24.65;11.38;;;20.40;94.20;;;;;;4241242;27;20096;-62
2021/09/07 06:29:46;;;;;;;24.75;9.65;;;20.70;93.70;;;;;;4242955;27;20035;-63
2021/09/07 06:31:48;;;;;;;26.30;9.18;;;21.10;93.50;;;;;;4240968;27;20027;-62
2021/09/07 06:33:49;;;;;;;27.65;9.02;;;21.30;93.10;;;;;;4242161;27;20039;-62
2021/09/07 06:35:50;;;;;;;24.17;8.50;;;21.00;92.90;;;;;;4241521;27;20039;-62
2021/09/07 06:37:53;;;;;;;22.38;8.70;;;21.10;93.00;;;;;;4241786;27;20040;-62
2021/09/07 06:39:55;;;;;;;18.02;6.85;;;21.10;92.70;;;;;;4241962;27;20072;-61
2021/09/07 06:41:56;;;;;;;20.95;6.85;;;21.10;92.60;;;;;;4241427;27;20084;-63
2021/09/07 06:43:57;;;;;;;25.52;7.05;;;20.90;92.70;;;;;;4241946;27;20092;-62
2021/09/07 06:45:58;;;;;;;13.80;6.60;;;21.00;92.70;;;;;;4240673;27;20483;-63
2021/09/07 06:47:59;;;;;;;32.25;7.18;;;20.80;92.70;;;;;;4242283;27;20088;-62
2021/09/07 06:50:00;;;;;;;18.92;6.80;;;21.00;92.80;;;;;;4240492;27;20023;-62
2021/09/07 06:52:02;;;;;;;12.15;6.18;;;20.90;92.70;;;;;;4242074;27;20028;-62
2021/09/07 06:54:03;;;;;;;15.57;5.85;;;20.90;92.50;;;;;;4241115;27;20023;-62
2021/09/07 06:56:04;;;;;;;16.10;6.43;;;21.10;92.40;;;;;;4241870;27;20584;-61
2021/09/07 06:58:06;;;;;;;26.48;6.53;;;21.20;92.30;;;;;;4240760;27;20092;-62
2021/09/07 07:00:08;;;;;;;21.45;6.18;;;21.30;92.00;;;;;;4241861;27;20058;-62
2021/09/07 07:02:09;;;;;;;13.27;6.25;;;21.40;91.80;;;;;;4240252;27;20031;-62
2021/09/07 07:04:10;;;;;;;17.27;5.60;;;21.40;91.70;;;;;;4242261;27;20368;-62
2021/09/07 07:06:11;;;;;;;17.02;6.03;;;21.50;91.70;;;;;;4240921;27;20023;-62
2021/09/07 07:08:12;;;;;;;11.93;6.30;;;21.10;91.90;;;;;;4241353;27;20052;-62
2021/09/07 07:10:13;;;;;;;12.35;6.53;;;20.70;92.10;;;;;;4241288;27;20057;-63
2021/09/07 07:12:14;;;;;;;17.00;4.90;;;20.70;92.40;;;;;;4241207;27;20122;-62
2021/09/07 07:14:21;;;;;;;18.33;6.53;;;20.70;92.30;;;;;;4241051;27;20035;-63
2021/09/07 07:16:22;;;;;;;19.98;7.22;;;21.00;92.20;;;;;;4240429;27;20072;-62
2021/09/07 07:18:23;;;;;;;19.45;6.93;;;20.90;91.90;;;;;;4240457;27;20051;-63
2021/09/07 07:20:25;;;;;;;12.35;6.18;;;20.60;92.20;;;;;;4240029;27;20475;-62
2021/09/07 07:22:26;;;;;;;17.15;5.60;;;20.20;92.90;;;;;;4241140;27;20528;-63
2021/09/07 07:24:27;;;;;;;16.25;5.93;;;20.00;92.70;;;;;;4240680;27;20467;-62
2021/09/07 07:26:28;;;;;;;30.10;9.50;;;20.10;92.80;;;;;;4241067;27;20043;-62
2021/09/07 07:28:29;;;;;;;40.22;13.30;;;20.00;92.70;;;;;;4240015;27;20138;-61
2021/09/07 07:30:32;;;;;;;19.95;6.70;;;19.70;93.30;;;;;;4241539;27;20043;-62
2021/09/07 07:32:33;;;;;;;19.75;6.47;;;19.40;93.70;;;;;;4239420;27;20088;-62
2021/09/07 07:34:34;;;;;;;14.52;7.03;;;19.20;94.10;;;;;;4241141;27;20398;-62
2021/09/07 07:36:35;;;;;;;20.55;6.97;;;18.90;94.40;;;;;;4239738;27;20081;-62
2021/09/07 07:38:36;;;;;;;17.60;6.78;;;18.80;94.70;;;;;;4240510;27;20031;-63
2021/09/07 07:40:38;;;;;;;18.67;6.53;;;19.00;94.80;;;;;;4240069;27;20036;-62
2021/09/07 07:42:39;;;;;;;18.90;7.43;;;18.70;95.00;;;;;;4240279;27;20036;-61
2021/09/07 07:44:40;;;;;;;13.35;7.15;;;18.50;95.40;;;;;;4240718;27;20034;-62
2021/09/07 07:46:41;;;;;;;14.95;6.30;;;18.10;95.70;;;;;;4240034;27;20044;-62
2021/09/07 07:48:43;;;;;;;16.20;7.18;;;18.00;96.00;;;;;;4240446;27;20031;-62
2021/09/07 07:50:44;;;;;;;14.38;7.00;;;17.90;96.20;;;;;;4240095;27;20080;-62
2021/09/07 07:52:45;;;;;;;21.08;7.47;;;18.20;96.20;;;;;;4240369;27;20080;-62
2021/09/07 07:54:49;;;;;;;11.77;5.80;;;18.10;96.30;;;;;;4239954;27;20052;-63
2021/09/07 07:56:50;;;;;;;16.85;6.47;;;18.30;96.10;;;;;;4240569;27;20491;-62
2021/09/07 07:58:51;;;;;;;15.45;6.50;;;18.40;95.90;;;;;;4239295;27;20039;-62
2021/09/07 08:00:53;;;;;;;18.40;6.78;;;18.50;95.90;;;;;;4240470;27;20185;-63
2021/09/07 08:02:54;;;;;;;9.73;5.45;;;18.60;95.90;;;;;;4239350;27;20452;-63
2021/09/07 08:04:55;;;;;;;13.57;5.95;;;18.60;95.80;;;;;;4240712;27;20064;-62
2021/09/07 08:06:56;;;;;;;15.18;7.30;;;18.60;95.90;;;;;;4239078;27;20417;-62
2021/09/07 08:08:57;;;;;;;17.95;5.90;;;18.50;96.10;;;;;;4240553;27;20031;-62
2021/09/07 08:10:58;;;;;;;19.92;8.02;;;18.80;96.10;;;;;;4240048;27;20384;-63
2021/09/07 08:12:59;;;;;;;12.98;6.53;;;18.60;96.20;;;;;;4239796;27;20046;-63
2021/09/07 08:15:00;;;;;;;14.60;6.57;;;18.70;96.20;;;;;;4238403;27;20441;-62
2021/09/07 08:17:02;;;;;;;16.08;6.13;;;18.50;96.30;;;;;;4239315;27;20039;-63
2021/09/07 08:19:03;;;;;;;12.60;7.00;;;18.50;96.40;;;;;;4240413;27;20026;-62
2021/09/07 08:21:04;;;;;;;10.57;5.63;;;18.60;96.50;;;;;;4238695;27;20464;-62
2021/09/07 08:23:05;;;;;;;11.32;5.18;;;18.60;96.20;;;;;;4239967;27;20039;-62
2021/09/07 08:25:07;;;;;;;11.35;5.55;;;18.70;96.10;;;;;;4239642;27;20457;-63
2021/09/07 08:27:08;;;;;;;10.38;5.47;;;18.70;96.20;;;;;;4240127;27;20799;-63
2021/09/07 08:29:09;;;;;;;11.20;5.18;;;18.90;96.10;;;;;;4239419;27;20532;-62
2021/09/07 08:31:10;;;;;;;8.13;4.75;;;18.90;95.90;;;;;;4240567;27;20444;-62
2021/09/07 08:33:13;;;;;;;14.13;5.57;;;19.10;95.70;;;;;;4239461;27;20039;-62
2021/09/07 08:35:14;;;;;;;8.65;4.90;;;19.10;95.70;;;;;;4240604;28;20039;-62
2021/09/07 08:37:15;;;;;;;12.45;5.05;;;19.10;95.50;;;;;;4238771;28;20043;-62
2021/09/07 08:39:16;;;;;;;10.30;4.60;;;19.30;95.40;;;;;;4239862;28;20103;-62
2021/09/07 08:41:22;;;;;;;15.98;4.97;;;19.50;95.00;;;;;;4238600;28;20027;-63
2021/09/07 08:43:24;;;;;;;16.35;5.35;;;19.70;94.90;;;;;;4239535;28;20725;-62
2021/09/07 08:45:25;;;;;;;8.65;5.03;;;19.90;94.50;;;;;;4239381;28;20104;-62
2021/09/07 08:47:26;;;;;;;7.93;4.68;;;19.80;94.30;;;;;;4239455;28;20056;-62
2021/09/07 08:49:27;;;;;;;8.93;4.55;;;19.80;94.50;;;;;;4240002;27;20088;-62
2021/09/07 08:51:29;;;;;;;11.38;4.75;;;19.90;94.60;;;;;;4238761;28;20463;-62
2021/09/07 08:53:30;;;;;;;18.55;5.45;;;19.90;94.60;;;;;;4239982;28;20043;-61
2021/09/07 08:55:31;;;;;;;13.15;4.93;;;20.00;94.70;;;;;;4239531;28;20031;-62
2021/09/07 08:57:32;;;;;;;9.65;4.03;;;20.20;94.30;;;;;;4240499;28;20116;-62
2021/09/07 08:59:34;;;;;;;10.93;4.10;;;20.20;94.10;;;;;;4239556;27;20035;-61
2021/09/07 09:01:38;;;;;;;13.70;4.20;;;20.30;93.80;;;;;;4239521;28;20565;-61
2021/09/07 09:03:42;;;;;;;12.55;3.70;;;20.40;93.60;;;;;;4238531;28;20175;-63
2021/09/07 09:05:46;;;;;;;9.93;4.50;;;20.30;93.30;;;;;;4240202;28;20051;-62
2021/09/07 09:07:47;;;;;;;12.82;4.53;;;20.40;93.10;;;;;;4238236;28;20047;-62
2021/09/07 09:09:50;;;;;;;11.88;4.57;;;20.60;93.00;;;;;;4238222;28;20047;-62
2021/09/07 09:11:56;;;;;;;11.98;4.40;;;20.60;92.70;;;;;;4238790;27;20429;-66
2021/09/07 09:13:57;;;;;;;12.00;4.47;;;20.60;92.30;;;;;;4240283;27;20031;-62
2021/09/07 09:16:03;;;;;;;10.98;4.50;;;20.60;92.60;;;;;;4240979;27;20023;-63
2021/09/07 09:18:09;;;;;;;12.60;4.65;;;20.80;92.40;;;;;;4243300;27;20031;-65
2021/09/07 09:20:18;;;;;;;16.02;4.32;;;21.00;92.20;;;;;;4242658;27;20944;-63
2021/09/07 09:22:21;;;;;;;10.93;4.80;;;20.80;91.80;;;;;;4242312;27;20607;-62
2021/09/07 09:24:23;;;;;;;9.68;3.92;;;20.70;92.00;;;;;;4242135;27;20031;-62
2021/09/07 09:26:24;;;;;;;8.93;4.38;;;20.60;92.00;;;;;;4242055;27;20060;-62
2021/09/07 09:28:25;;;;;;;15.20;4.80;;;20.50;92.00;;;;;;4242385;27;20039;-62
2021/09/07 09:30:40;;;;;;;8.63;4.13;;;20.50;91.80;;;;;;4242109;27;20069;-62
2021/09/07 09:32:48;;;;;;;10.75;3.88;;;20.40;91.40;;;;;;4243065;27;20452;-63
2021/09/07 09:34:50;;;;;;;8.27;3.75;;;20.40;91.70;;;;;;4241986;27;20805;-62
2021/09/07 09:36:57;;;;;;;10.98;4.45;;;20.50;91.80;;;;;;4243218;27;20479;-63
2021/09/07 09:38:58;;;;;;;7.57;4.70;;;20.60;91.60;;;;;;4241773;27;20053;-62
2021/09/07 09:41:02;;;;;;;7.30;4.03;;;20.60;91.50;;;;;;4243203;27;20092;-63
2021/09/07 09:43:26;;;;;;;11.68;4.10;;;20.90;91.50;;;;;;4241843;27;20055;-62
2021/09/07 09:45:31;;;;;;;10.48;4.63;;;20.90;90.70;;;;;;4242433;27;20043;-62
2021/09/07 09:47:41;;;;;;;9.10;3.55;;;20.90;90.80;;;;;;4241759;27;20050;-62
2021/09/07 09:49:44;;;;;;;10.93;3.38;;;21.00;90.80;;;;;;4243281;27;20419;-62
2021/09/07 09:51:47;;;;;;;6.30;3.33;;;21.10;90.60;;;;;;4241510;27;20019;-62
2021/09/07 09:53:49;;;;;;;9.68;3.65;;;20.90;90.40;;;;;;4242727;27;20080;-62
2021/09/07 09:55:53;;;;;;;9.73;4.18;;;20.90;90.40;;;;;;4241807;27;20088;-62
2021/09/07 09:57:54;;;;;;;9.77;3.60;;;20.80;90.60;;;;;;4242897;27;20039;-63
2021/09/07 09:59:56;;;;;;;10.23;3.78;;;20.80;90.30;;;;;;4241802;27;20047;-62
2021/09/07 10:01:59;;;;;;;9.68;4.03;;;20.70;90.10;;;;;;4242340;27;20043;-62
2021/09/07 10:04:01;;;;;;;12.20;4.18;;;20.80;90.30;;;;;;4241052;27;20051;-62
2021/09/07 10:06:02;;;;;;;8.43;3.90;;;21.10;90.40;;;;;;4242737;27;20064;-62
2021/09/07 10:08:04;;;;;;;5.40;3.05;;;21.30;90.40;;;;;;4240934;27;20043;-64
2021/09/07 10:10:06;;;;;;;5.55;3.10;;;21.70;90.00;;;;;;4242604;27;20761;-63
2021/09/07 10:12:38;;;;;;;9.73;3.80;;;21.80;88.90;;;;;;4240959;27;20039;-63
2021/09/07 10:14:50;;;;;;;7.05;3.90;;;21.60;89.10;;;;;;4242377;27;20031;-62
2021/09/07 10:17:25;;;;;;;10.85;4.00;;;21.30;89.80;;;;;;4240846;27;20096;-62
2021/09/07 10:19:46;;;;;;;7.30;4.00;;;21.10;89.40;;;;;;4242436;27;20035;-62
2021/09/07 10:26:01;;;;;;;5.22;2.97;;;20.90;90.30;;;;;;4240872;27;20112;-62
2021/09/07 10:28:09;;;;;;;5.80;3.03;;;20.90;89.30;;;;;;4242086;27;20043;-62
2021/09/07 10:30:10;;;;;;;7.63;2.95;;;21.00;88.00;;;;;;4241530;27;20092;-63
2021/09/07 10:32:23;;;;;;;9.88;3.20;;;20.90;88.50;;;;;;4242457;27;20548;-62
2021/09/07 10:34:28;;;;;;;5.47;3.53;;;21.00;86.60;;;;;;4240790;27;20073;-63